createdAt,value
2017-10-12T00:00:46.321Z,0
2017-10-12T00:01:46.307Z,0
2017-10-12T00:02:45.951Z,0
2017-10-12T00:03:46.275Z,0
2017-10-12T00:04:45.929Z,0
2017-10-12T00:05:46.266Z,0
2017-10-12T00:06:46.597Z,0
2017-10-12T00:07:46.578Z,0
2017-10-12T00:08:46.242Z,0
2017-10-12T00:09:45.876Z,0
2017-10-12T00:10:46.228Z,0
2017-10-12T00:11:46.536Z,0
2017-10-12T00:12:46.543Z,0
2017-10-12T00:13:46.180Z,0
2017-10-12T00:14:46.194Z,0
2017-10-12T00:15:46.861Z,0
2017-10-12T00:16:46.165Z,0
2017-10-12T00:17:45.802Z,0
2017-10-12T00:18:46.142Z,0
2017-10-12T00:19:46.134Z,0
2017-10-12T00:20:46.472Z,0
2017-10-12T00:21:45.789Z,0
2017-10-12T00:22:45.956Z,0
2017-10-12T00:23:46.101Z,0
2017-10-12T00:24:46.070Z,0
2017-10-12T00:25:46.085Z,0
2017-10-12T00:26:46.070Z,0
2017-10-12T00:27:46.044Z,0
2017-10-12T00:28:46.744Z,0
2017-10-12T00:29:46.711Z,0
2017-10-12T00:30:46.022Z,0
2017-10-12T00:31:46.388Z,0
2017-10-12T00:32:45.657Z,0
2017-10-12T00:33:45.998Z,0
2017-10-12T00:34:45.648Z,0
2017-10-12T00:35:45.961Z,0
2017-10-12T00:36:45.615Z,0
2017-10-12T00:37:45.948Z,0
2017-10-12T00:38:46.288Z,0
2017-10-12T00:39:45.922Z,0
2017-10-12T00:40:45.912Z,0
2017-10-12T00:41:45.907Z,0
2017-10-12T00:42:45.895Z,0
2017-10-12T00:43:46.266Z,0
2017-10-12T00:44:46.568Z,0
2017-10-12T00:45:45.524Z,0
2017-10-12T00:46:45.855Z,0
2017-10-12T00:47:45.519Z,0
2017-10-12T00:48:45.837Z,0
2017-10-12T00:49:46.164Z,0
2017-10-12T00:50:45.813Z,0
2017-10-12T00:51:46.160Z,0
2017-10-12T00:52:46.492Z,0
2017-10-12T00:53:46.129Z,0
2017-10-12T00:54:45.440Z,0
2017-10-12T00:55:46.104Z,0
2017-10-12T00:56:45.764Z,0
2017-10-12T00:57:45.417Z,0
2017-10-12T00:58:46.078Z,0
2017-10-12T00:59:46.411Z,0
2017-10-12T01:00:45.723Z,0
2017-10-12T01:01:45.719Z,0
2017-10-12T01:02:45.379Z,0
2017-10-12T01:03:46.030Z,0
2017-10-12T01:04:45.363Z,0
2017-10-12T01:05:45.362Z,0
2017-10-12T01:06:45.666Z,0
2017-10-12T01:07:45.650Z,0
2017-10-12T01:08:45.655Z,0
2017-10-12T01:09:45.975Z,0
2017-10-12T01:10:45.973Z,0
2017-10-12T01:11:45.657Z,0
2017-10-12T01:12:45.945Z,0
2017-10-12T01:13:45.936Z,0
2017-10-12T01:14:45.585Z,0
2017-10-12T01:15:45.956Z,0
2017-10-12T01:16:45.935Z,0
2017-10-12T01:17:45.912Z,0
2017-10-12T01:18:45.210Z,0
2017-10-12T01:19:45.880Z,0
2017-10-12T01:20:45.886Z,0
2017-10-12T01:21:45.523Z,0
2017-10-12T01:22:45.171Z,0
2017-10-12T01:23:45.837Z,0
2017-10-12T01:24:45.508Z,0
2017-10-12T01:25:45.476Z,0
2017-10-12T01:26:45.130Z,0
2017-10-12T01:27:45.807Z,0
2017-10-12T01:28:45.125Z,0
2017-10-12T01:29:45.793Z,0
2017-10-12T01:30:47.475Z,0
2017-10-12T01:31:45.463Z,0
2017-10-12T01:32:45.750Z,0
2017-10-12T01:33:45.401Z,0
2017-10-12T01:34:45.396Z,0
2017-10-12T01:35:45.418Z,0
2017-10-12T01:36:45.057Z,0
2017-10-12T01:37:45.049Z,0
2017-10-12T01:38:45.696Z,0
2017-10-12T01:39:45.343Z,0
2017-10-12T01:40:46.218Z,0
2017-10-12T01:41:45.335Z,0
2017-10-12T01:42:45.664Z,0
2017-10-12T01:43:46.011Z,0
2017-10-12T01:44:44.963Z,0
2017-10-12T01:45:44.950Z,0
2017-10-12T01:46:45.291Z,0
2017-10-12T01:47:45.617Z,0
2017-10-12T01:48:45.260Z,0
2017-10-12T01:49:45.609Z,0
2017-10-12T01:50:45.256Z,0
2017-10-12T01:51:45.234Z,0
2017-10-12T01:52:45.565Z,0
2017-10-12T01:53:45.217Z,0
2017-10-12T01:54:45.222Z,0
2017-10-12T01:55:45.535Z,0
2017-10-12T01:56:45.194Z,0
2017-10-12T01:57:45.551Z,0
2017-10-12T01:58:44.830Z,0
2017-10-12T01:59:45.499Z,0
2017-10-12T02:00:45.545Z,0
2017-10-12T02:01:45.158Z,0
2017-10-12T02:02:45.134Z,0
2017-10-12T02:03:45.835Z,0
2017-10-12T02:04:45.125Z,0
2017-10-12T02:05:45.105Z,0
2017-10-12T02:06:44.767Z,0
2017-10-12T02:07:45.428Z,0
2017-10-12T02:08:44.738Z,0
2017-10-12T02:09:44.730Z,0
2017-10-12T02:10:45.073Z,0
2017-10-12T02:11:44.710Z,0
2017-10-12T02:12:44.727Z,0
2017-10-12T02:13:45.367Z,0
2017-10-12T02:14:44.710Z,0
2017-10-12T02:15:45.713Z,0
2017-10-12T02:16:45.000Z,0
2017-10-12T02:17:45.000Z,0
2017-10-12T02:18:45.342Z,0
2017-10-12T02:19:44.636Z,0
2017-10-12T02:20:44.972Z,0
2017-10-12T02:21:44.954Z,0
2017-10-12T02:22:45.288Z,0
2017-10-12T02:23:45.285Z,0
2017-10-12T02:24:45.305Z,0
2017-10-12T02:25:45.266Z,0
2017-10-12T02:26:45.585Z,0
2017-10-12T02:27:44.932Z,0
2017-10-12T02:28:44.912Z,0
2017-10-12T02:29:45.241Z,0
2017-10-12T02:30:45.228Z,0
2017-10-12T02:31:44.881Z,0
2017-10-12T02:32:44.856Z,0
2017-10-12T02:33:45.556Z,0
2017-10-12T02:34:45.217Z,0
2017-10-12T02:35:45.197Z,0
2017-10-12T02:36:45.189Z,0
2017-10-12T02:37:45.147Z,0
2017-10-12T02:38:45.135Z,0
2017-10-12T02:39:44.826Z,0
2017-10-12T02:40:44.780Z,0
2017-10-12T02:41:44.441Z,0
2017-10-12T02:42:44.775Z,0
2017-10-12T02:43:44.446Z,0
2017-10-12T02:44:44.401Z,0
2017-10-12T02:45:45.422Z,0
2017-10-12T02:46:44.382Z,0
2017-10-12T02:47:45.434Z,0
2017-10-12T02:48:45.064Z,0
2017-10-12T02:49:44.413Z,0
2017-10-12T02:50:44.683Z,0
2017-10-12T02:51:44.338Z,0
2017-10-12T02:52:44.664Z,0
2017-10-12T02:53:45.010Z,0
2017-10-12T02:54:44.986Z,0
2017-10-12T02:55:44.658Z,0
2017-10-12T02:56:44.969Z,0
2017-10-12T02:57:44.299Z,0
2017-10-12T02:58:44.634Z,0
2017-10-12T02:59:44.601Z,0
2017-10-12T03:00:44.259Z,0
2017-10-12T03:01:44.922Z,0
2017-10-12T03:02:44.589Z,0
2017-10-12T03:03:44.923Z,0
2017-10-12T03:04:44.929Z,0
2017-10-12T03:05:44.606Z,0
2017-10-12T03:06:44.552Z,0
2017-10-12T03:07:44.525Z,0
2017-10-12T03:08:44.193Z,0
2017-10-12T03:09:44.506Z,0
2017-10-12T03:10:44.501Z,0
2017-10-12T03:11:44.832Z,0
2017-10-12T03:12:45.178Z,0
2017-10-12T03:13:44.835Z,0
2017-10-12T03:14:44.463Z,0
2017-10-12T03:15:44.464Z,0
2017-10-12T03:16:44.440Z,0
2017-10-12T03:17:44.428Z,0
2017-10-12T03:18:44.771Z,0
2017-10-12T03:19:45.103Z,0
2017-10-12T03:20:44.457Z,0
2017-10-12T03:21:44.412Z,0
2017-10-12T03:22:44.409Z,0
2017-10-12T03:23:44.377Z,0
2017-10-12T03:24:44.421Z,0
2017-10-12T03:25:44.359Z,0
2017-10-12T03:26:44.705Z,0
2017-10-12T03:27:44.363Z,0
2017-10-12T03:28:43.992Z,0
2017-10-12T03:29:44.689Z,0
2017-10-12T03:30:44.008Z,0
2017-10-12T03:31:44.322Z,0
2017-10-12T03:32:44.299Z,0
2017-10-12T03:33:44.623Z,0
2017-10-12T03:34:44.334Z,0
2017-10-12T03:35:43.927Z,0
2017-10-12T03:36:44.605Z,0
2017-10-12T03:37:44.255Z,0
2017-10-12T03:38:43.901Z,0
2017-10-12T03:39:44.269Z,0
2017-10-12T03:40:44.258Z,0
2017-10-12T03:41:44.229Z,0
2017-10-12T03:42:44.565Z,0
2017-10-12T03:43:43.852Z,0
2017-10-12T03:44:44.183Z,0
2017-10-12T03:45:44.522Z,0
2017-10-12T03:46:43.832Z,0
2017-10-12T03:47:44.162Z,0
2017-10-12T03:48:44.491Z,0
2017-10-12T03:49:43.794Z,0
2017-10-12T03:50:44.142Z,0
2017-10-12T03:51:45.177Z,0
2017-10-12T03:52:44.114Z,0
2017-10-12T03:53:44.456Z,0
2017-10-12T03:54:43.786Z,0
2017-10-12T03:55:44.800Z,0
2017-10-12T03:56:43.734Z,0
2017-10-12T03:57:44.073Z,0
2017-10-12T03:58:44.415Z,0
2017-10-12T03:59:44.116Z,0
2017-10-12T04:00:44.376Z,0
2017-10-12T04:01:43.694Z,0
2017-10-12T04:02:43.678Z,0
2017-10-12T04:03:44.712Z,0
2017-10-12T04:04:44.364Z,0
2017-10-12T04:05:44.327Z,0
2017-10-12T04:06:43.985Z,0
2017-10-12T04:07:43.985Z,0
2017-10-12T04:08:43.641Z,0
2017-10-12T04:09:43.950Z,0
2017-10-12T04:10:43.944Z,0
2017-10-12T04:11:43.594Z,0
2017-10-12T04:12:43.924Z,0
2017-10-12T04:13:43.592Z,0
2017-10-12T04:14:44.247Z,0
2017-10-12T04:15:44.583Z,0
2017-10-12T04:16:44.277Z,0
2017-10-12T04:17:43.557Z,0
2017-10-12T04:18:44.205Z,0
2017-10-12T04:19:44.235Z,0
2017-10-12T04:20:43.847Z,0
2017-10-12T04:21:44.537Z,0
2017-10-12T04:22:43.830Z,0
2017-10-12T04:23:44.499Z,0
2017-10-12T04:24:43.473Z,0
2017-10-12T04:25:44.485Z,0
2017-10-12T04:26:43.828Z,0
2017-10-12T04:27:44.120Z,0
2017-10-12T04:28:43.435Z,0
2017-10-12T04:29:44.104Z,0
2017-10-12T04:30:44.445Z,0
2017-10-12T04:31:44.425Z,0
2017-10-12T04:32:43.394Z,0
2017-10-12T04:33:43.726Z,0
2017-10-12T04:34:44.397Z,0
2017-10-12T04:35:43.368Z,0
2017-10-12T04:36:44.387Z,0
2017-10-12T04:37:43.346Z,0
2017-10-12T04:38:44.360Z,0
2017-10-12T04:39:43.669Z,0
2017-10-12T04:40:43.996Z,0
2017-10-12T04:41:44.358Z,0
2017-10-12T04:42:43.981Z,0
2017-10-12T04:43:44.351Z,0
2017-10-12T04:44:43.630Z,0
2017-10-12T04:45:43.614Z,0
2017-10-12T04:46:43.264Z,0
2017-10-12T04:47:43.935Z,0
2017-10-12T04:48:43.263Z,0
2017-10-12T04:49:44.271Z,0
2017-10-12T04:50:43.224Z,0
2017-10-12T04:51:43.578Z,0
2017-10-12T04:52:43.206Z,0
2017-10-12T04:53:43.553Z,0
2017-10-12T04:54:43.873Z,0
2017-10-12T04:55:43.178Z,0
2017-10-12T04:56:43.517Z,0
2017-10-12T04:57:43.157Z,0
2017-10-12T04:58:43.160Z,0
2017-10-12T04:59:43.143Z,0
2017-10-12T05:00:43.854Z,0
2017-10-12T05:01:43.844Z,0
2017-10-12T05:02:43.477Z,0
2017-10-12T05:03:43.101Z,0
2017-10-12T05:04:43.775Z,0
2017-10-12T05:05:43.426Z,0
2017-10-12T05:06:43.095Z,0
2017-10-12T05:07:43.767Z,0
2017-10-12T05:08:43.401Z,0
2017-10-12T05:09:43.731Z,0
2017-10-12T05:10:43.410Z,0
2017-10-12T05:11:43.378Z,0
2017-10-12T05:12:44.044Z,0
2017-10-12T05:13:43.363Z,0
2017-10-12T05:14:43.340Z,0
2017-10-12T05:15:43.346Z,0
2017-10-12T05:16:43.341Z,0
2017-10-12T05:17:43.685Z,0
2017-10-12T05:18:42.969Z,0
2017-10-12T05:19:43.986Z,0
2017-10-12T05:20:42.947Z,0
2017-10-12T05:21:42.980Z,5
2017-10-12T05:22:43.267Z,5
2017-10-12T05:23:43.623Z,5
2017-10-12T05:24:43.252Z,5
2017-10-12T05:25:43.926Z,5
2017-10-12T05:26:43.233Z,5
2017-10-12T05:27:42.899Z,10
2017-10-12T05:28:42.870Z,10
2017-10-12T05:29:43.202Z,10
2017-10-12T05:30:43.201Z,10
2017-10-12T05:31:43.553Z,10
2017-10-12T05:32:42.835Z,10
2017-10-12T05:33:43.881Z,15
2017-10-12T05:34:43.500Z,15
2017-10-12T05:35:43.144Z,15
2017-10-12T05:36:43.488Z,15
2017-10-12T05:37:43.125Z,15
2017-10-12T05:38:43.186Z,20
2017-10-12T05:39:43.117Z,20
2017-10-12T05:40:44.127Z,20
2017-10-12T05:41:43.099Z,25
2017-10-12T05:42:43.092Z,25
2017-10-12T05:43:42.731Z,30
2017-10-12T05:44:42.723Z,30
2017-10-12T05:45:43.391Z,30
2017-10-12T05:46:43.044Z,35
2017-10-12T05:47:43.040Z,35
2017-10-12T05:48:43.360Z,40
2017-10-12T05:49:43.692Z,45
2017-10-12T05:50:43.356Z,45
2017-10-12T05:51:43.000Z,45
2017-10-12T05:52:42.993Z,50
2017-10-12T05:53:42.991Z,45
2017-10-12T05:54:42.967Z,50
2017-10-12T05:55:42.623Z,50
2017-10-12T05:56:42.959Z,45
2017-10-12T05:57:42.948Z,45
2017-10-12T05:58:42.932Z,45
2017-10-12T05:59:42.584Z,40
2017-10-12T06:00:42.912Z,40
2017-10-12T06:01:42.569Z,45
2017-10-12T06:02:42.558Z,45
2017-10-12T06:03:42.885Z,45
2017-10-12T06:04:42.889Z,40
2017-10-12T06:05:43.228Z,40
2017-10-12T06:06:43.201Z,35
2017-10-12T06:07:42.511Z,35
2017-10-12T06:08:43.578Z,35
2017-10-12T06:09:42.840Z,35
2017-10-12T06:10:43.187Z,35
2017-10-12T06:11:43.178Z,30
2017-10-12T06:12:43.504Z,25
2017-10-12T06:13:42.835Z,25
2017-10-12T06:14:42.790Z,20
2017-10-12T06:15:43.120Z,20
2017-10-12T06:16:43.111Z,15
2017-10-12T06:17:42.763Z,15
2017-10-12T06:18:42.759Z,15
2017-10-12T06:19:42.752Z,20
2017-10-12T06:20:42.732Z,20
2017-10-12T06:21:42.735Z,20
2017-10-12T06:22:42.379Z,20
2017-10-12T06:23:42.370Z,25
2017-10-12T06:24:43.418Z,25
2017-10-12T06:25:42.724Z,30
2017-10-12T06:26:42.704Z,30
2017-10-12T06:27:43.012Z,30
2017-10-12T06:28:43.018Z,35
2017-10-12T06:29:42.321Z,35
2017-10-12T06:30:42.653Z,35
2017-10-12T06:31:42.640Z,35
2017-10-12T06:32:42.657Z,35
2017-10-12T06:33:42.299Z,35
2017-10-12T06:34:42.972Z,35
2017-10-12T06:35:42.276Z,40
2017-10-12T06:36:42.948Z,45
2017-10-12T06:37:42.587Z,45
2017-10-12T06:38:42.948Z,45
2017-10-12T06:39:42.233Z,45
2017-10-12T06:40:42.227Z,45
2017-10-12T06:41:42.216Z,55
2017-10-12T06:42:43.241Z,65
2017-10-12T06:43:42.902Z,65
2017-10-12T06:44:42.534Z,70
2017-10-12T06:45:42.517Z,75
2017-10-12T06:46:43.198Z,80
2017-10-12T06:47:42.503Z,80
2017-10-12T06:48:42.699Z,70
2017-10-12T06:49:43.182Z,65
2017-10-12T06:50:43.193Z,55
2017-10-12T06:51:42.474Z,50
2017-10-12T06:52:42.460Z,50
2017-10-12T06:53:42.121Z,55
2017-10-12T06:54:43.129Z,65
2017-10-12T06:55:42.438Z,70
2017-10-12T06:56:42.092Z,75
2017-10-12T06:57:42.107Z,80
2017-10-12T06:58:42.410Z,80
2017-10-12T06:59:42.742Z,75
2017-10-12T07:00:42.054Z,75
2017-10-12T07:01:42.726Z,70
2017-10-12T07:02:42.415Z,70
2017-10-12T07:03:42.367Z,75
2017-10-12T07:04:42.369Z,75
2017-10-12T07:05:42.690Z,75
2017-10-12T07:06:43.360Z,75
2017-10-12T07:07:42.015Z,70
2017-10-12T07:08:42.326Z,70
2017-10-12T07:09:43.004Z,70
2017-10-12T07:10:42.678Z,75
2017-10-12T07:11:42.300Z,75
2017-10-12T07:12:42.664Z,75
2017-10-12T07:13:42.306Z,75
2017-10-12T07:14:42.279Z,75
2017-10-12T07:15:42.621Z,75
2017-10-12T07:16:42.262Z,75
2017-10-12T07:17:42.607Z,70
2017-10-12T07:18:42.609Z,70
2017-10-12T07:19:43.266Z,70
2017-10-12T07:20:42.231Z,65
2017-10-12T07:21:42.225Z,70
2017-10-12T07:22:41.871Z,70
2017-10-12T07:23:41.867Z,70
2017-10-12T07:24:42.539Z,70
2017-10-12T07:25:42.872Z,75
2017-10-12T07:26:42.880Z,75
2017-10-12T07:27:42.542Z,75
2017-10-12T07:28:42.512Z,75
2017-10-12T07:29:42.161Z,80
2017-10-12T07:30:42.151Z,90
2017-10-12T07:31:42.149Z,100
2017-10-12T07:32:42.141Z,105
2017-10-12T07:33:42.142Z,120
2017-10-12T07:34:42.114Z,115
2017-10-12T07:35:41.804Z,115
2017-10-12T07:36:42.826Z,105
2017-10-12T07:37:42.796Z,95
2017-10-12T07:38:42.759Z,95
2017-10-12T07:39:42.763Z,90
2017-10-12T07:40:41.752Z,95
2017-10-12T07:41:42.418Z,95
2017-10-12T07:42:41.717Z,100
2017-10-12T07:43:42.380Z,105
2017-10-12T07:44:42.375Z,120
2017-10-12T07:45:41.688Z,130
2017-10-12T07:46:41.680Z,145
2017-10-12T07:47:42.351Z,155
2017-10-12T07:48:42.397Z,175
2017-10-12T07:49:42.344Z,220
2017-10-12T07:50:42.327Z,245
2017-10-12T07:51:41.640Z,240
2017-10-12T07:52:42.318Z,250
2017-10-12T07:53:41.961Z,245
2017-10-12T07:54:42.327Z,190
2017-10-12T07:55:42.645Z,210
2017-10-12T07:56:42.620Z,225
2017-10-12T07:57:42.295Z,270
2017-10-12T07:58:42.262Z,305
2017-10-12T07:59:41.919Z,265
2017-10-12T08:00:41.945Z,265
2017-10-12T08:01:42.584Z,275
2017-10-12T08:02:41.907Z,255
2017-10-12T08:03:41.890Z,240
2017-10-12T08:04:42.248Z,215
2017-10-12T08:05:42.221Z,190
2017-10-12T08:06:41.530Z,200
2017-10-12T08:07:42.545Z,200
2017-10-12T08:08:42.563Z,190
2017-10-12T08:09:41.847Z,185
2017-10-12T08:10:42.188Z,165
2017-10-12T08:11:42.201Z,160
2017-10-12T08:12:42.183Z,220
2017-10-12T08:13:42.156Z,210
2017-10-12T08:14:42.172Z,200
2017-10-12T08:15:41.466Z,230
2017-10-12T08:16:41.477Z,265
2017-10-12T08:17:42.144Z,265
2017-10-12T08:18:42.491Z,255
2017-10-12T08:19:41.783Z,230
2017-10-12T08:20:41.777Z,215
2017-10-12T08:21:41.807Z,180
2017-10-12T08:22:41.772Z,240
2017-10-12T08:23:42.465Z,230
2017-10-12T08:24:41.749Z,170
2017-10-12T08:25:42.079Z,145
2017-10-12T08:26:42.615Z,125
2017-10-12T08:27:42.069Z,135
2017-10-12T08:28:41.725Z,115
2017-10-12T08:29:42.081Z,120
2017-10-12T08:30:42.058Z,115
2017-10-12T08:31:41.716Z,145
2017-10-12T08:32:42.029Z,75
2017-10-12T08:33:41.719Z,65
2017-10-12T08:34:41.344Z,75
2017-10-12T08:35:41.338Z,70
2017-10-12T08:36:41.676Z,65
2017-10-12T08:37:41.666Z,95
2017-10-12T08:38:41.674Z,95
2017-10-12T08:39:42.006Z,120
2017-10-12T08:40:42.001Z,105
2017-10-12T08:41:41.644Z,90
2017-10-12T08:42:41.291Z,85
2017-10-12T08:43:41.963Z,115
2017-10-12T08:44:41.623Z,135
2017-10-12T08:45:41.649Z,150
2017-10-12T08:46:41.621Z,200
2017-10-12T08:47:41.260Z,210
2017-10-12T08:48:41.588Z,255
2017-10-12T08:49:41.928Z,200
2017-10-12T08:50:42.270Z,125
2017-10-12T08:51:41.577Z,110
2017-10-12T08:52:41.908Z,140
2017-10-12T08:53:41.907Z,140
2017-10-12T08:54:41.230Z,140
2017-10-12T08:55:41.202Z,140
2017-10-12T08:56:42.213Z,155
2017-10-12T08:57:41.530Z,180
2017-10-12T08:58:41.874Z,165
2017-10-12T08:59:41.909Z,190
2017-10-12T09:00:41.531Z,190
2017-10-12T09:01:41.850Z,210
2017-10-12T09:02:41.516Z,255
2017-10-12T09:03:41.832Z,265
2017-10-12T09:04:41.483Z,255
2017-10-12T09:05:41.532Z,245
2017-10-12T09:06:41.847Z,170
2017-10-12T09:07:41.132Z,150
2017-10-12T09:08:42.155Z,130
2017-10-12T09:09:41.478Z,160
2017-10-12T09:10:41.793Z,220
2017-10-12T09:11:42.481Z,330
2017-10-12T09:12:41.473Z,280
2017-10-12T09:13:41.773Z,240
2017-10-12T09:14:42.213Z,240
2017-10-12T09:15:41.757Z,195
2017-10-12T09:16:41.599Z,175
2017-10-12T09:17:41.897Z,200
2017-10-12T09:18:41.420Z,175
2017-10-12T09:19:41.767Z,190
2017-10-12T09:20:41.757Z,190
2017-10-12T09:21:41.736Z,165
2017-10-12T09:22:42.077Z,165
2017-10-12T09:23:41.711Z,150
2017-10-12T09:24:41.701Z,135
2017-10-12T09:25:41.012Z,135
2017-10-12T09:26:41.688Z,170
2017-10-12T09:27:41.003Z,155
2017-10-12T09:28:41.048Z,180
2017-10-12T09:29:41.331Z,175
2017-10-12T09:30:40.985Z,130
2017-10-12T09:31:41.663Z,140
2017-10-12T09:32:40.972Z,195
2017-10-12T09:33:41.716Z,145
2017-10-12T09:34:41.654Z,125
2017-10-12T09:35:40.953Z,130
2017-10-12T09:36:40.948Z,175
2017-10-12T09:37:41.284Z,245
2017-10-12T09:38:41.971Z,235
2017-10-12T09:39:40.928Z,255
2017-10-12T09:40:41.957Z,295
2017-10-12T09:41:41.259Z,305
2017-10-12T09:42:41.256Z,280
2017-10-12T09:43:41.257Z,215
2017-10-12T09:44:40.900Z,215
2017-10-12T09:45:41.257Z,285
2017-10-12T09:46:41.572Z,220
2017-10-12T09:47:40.890Z,180
2017-10-12T09:48:41.214Z,155
2017-10-12T09:49:41.566Z,170
2017-10-12T09:50:41.549Z,110
2017-10-12T09:51:40.868Z,135
2017-10-12T09:52:41.529Z,180
2017-10-12T09:53:41.189Z,200
2017-10-12T09:54:41.187Z,165
2017-10-12T09:55:41.272Z,185
2017-10-12T09:56:41.902Z,220
2017-10-12T09:57:41.541Z,180
2017-10-12T09:58:40.819Z,210
2017-10-12T09:59:41.495Z,195
2017-10-12T10:00:41.518Z,210
2017-10-12T10:01:41.483Z,210
2017-10-12T10:02:41.136Z,260
2017-10-12T10:03:41.476Z,315
2017-10-12T10:04:41.468Z,260
2017-10-12T10:05:41.130Z,195
2017-10-12T10:06:41.873Z,175
2017-10-12T10:07:41.447Z,220
2017-10-12T10:08:41.112Z,170
2017-10-12T10:09:41.450Z,125
2017-10-12T10:10:40.750Z,160
2017-10-12T10:11:41.083Z,220
2017-10-12T10:12:41.775Z,205
2017-10-12T10:13:41.078Z,155
2017-10-12T10:14:41.073Z,195
2017-10-12T10:15:41.420Z,260
2017-10-12T10:16:41.396Z,250
2017-10-12T10:17:41.391Z,240
2017-10-12T10:18:41.393Z,290
2017-10-12T10:19:40.697Z,355
2017-10-12T10:20:41.729Z,320
2017-10-12T10:21:40.702Z,325
2017-10-12T10:22:40.699Z,335
2017-10-12T10:23:40.676Z,340
2017-10-12T10:24:40.671Z,350
2017-10-12T10:25:41.345Z,325
2017-10-12T10:26:41.353Z,265
2017-10-12T10:27:41.334Z,240
2017-10-12T10:28:41.035Z,250
2017-10-12T10:29:40.986Z,260
2017-10-12T10:30:41.340Z,260
2017-10-12T10:31:41.353Z,290
2017-10-12T10:32:40.975Z,290
2017-10-12T10:33:40.965Z,310
2017-10-12T10:34:41.301Z,300
2017-10-12T10:35:40.985Z,285
2017-10-12T10:36:41.283Z,275
2017-10-12T10:37:41.614Z,205
2017-10-12T10:38:40.952Z,220
2017-10-12T10:39:41.609Z,215
2017-10-12T10:40:41.283Z,205
2017-10-12T10:41:40.581Z,150
2017-10-12T10:42:40.939Z,200
2017-10-12T10:43:41.604Z,275
2017-10-12T10:44:40.577Z,280
2017-10-12T10:45:40.902Z,250
2017-10-12T10:46:40.896Z,270
2017-10-12T10:47:41.235Z,310
2017-10-12T10:48:40.897Z,270
2017-10-12T10:49:40.893Z,220
2017-10-12T10:50:41.253Z,210
2017-10-12T10:51:41.585Z,240
2017-10-12T10:52:40.523Z,215
2017-10-12T10:53:40.862Z,115
2017-10-12T10:54:40.559Z,165
2017-10-12T10:55:41.187Z,195
2017-10-12T10:56:41.198Z,260
2017-10-12T10:57:40.516Z,250
2017-10-12T10:58:40.834Z,265
2017-10-12T10:59:40.832Z,290
2017-10-12T11:00:41.177Z,265
2017-10-12T11:01:41.159Z,270
2017-10-12T11:02:40.499Z,290
2017-10-12T11:03:40.470Z,315
2017-10-12T11:04:40.820Z,340
2017-10-12T11:05:40.460Z,345
2017-10-12T11:06:41.487Z,350
2017-10-12T11:07:41.469Z,345
2017-10-12T11:08:40.785Z,345
2017-10-12T11:09:40.840Z,350
2017-10-12T11:10:40.776Z,335
2017-10-12T11:11:40.771Z,295
2017-10-12T11:12:40.797Z,250
2017-10-12T11:13:41.480Z,210
2017-10-12T11:14:41.100Z,205
2017-10-12T11:15:40.415Z,195
2017-10-12T11:16:40.760Z,195
2017-10-12T11:17:41.422Z,210
2017-10-12T11:18:41.091Z,205
2017-10-12T11:19:40.752Z,185
2017-10-12T11:20:40.411Z,195
2017-10-12T11:21:40.731Z,190
2017-10-12T11:22:41.431Z,185
2017-10-12T11:23:40.736Z,190
2017-10-12T11:24:40.722Z,170
2017-10-12T11:25:40.712Z,180
2017-10-12T11:26:41.080Z,210
2017-10-12T11:27:41.380Z,185
2017-10-12T11:28:40.366Z,165
2017-10-12T11:29:40.696Z,180
2017-10-12T11:30:40.678Z,200
2017-10-12T11:31:40.360Z,190
2017-10-12T11:32:40.670Z,235
2017-10-12T11:33:41.023Z,180
2017-10-12T11:34:40.659Z,165
2017-10-12T11:35:40.653Z,160
2017-10-12T11:36:40.648Z,160
2017-10-12T11:37:40.648Z,160
2017-10-12T11:38:40.978Z,165
2017-10-12T11:39:40.646Z,170
2017-10-12T11:40:40.292Z,185
2017-10-12T11:41:41.314Z,180
2017-10-12T11:42:40.279Z,175
2017-10-12T11:43:40.299Z,185
2017-10-12T11:44:40.615Z,225
2017-10-12T11:45:41.194Z,230
2017-10-12T11:46:40.283Z,200
2017-10-12T11:47:40.594Z,185
2017-10-12T11:48:40.949Z,190
2017-10-12T11:49:40.242Z,190
2017-10-12T11:50:40.626Z,190
2017-10-12T11:51:40.586Z,200
2017-10-12T11:52:41.247Z,205
2017-10-12T11:53:40.902Z,210
2017-10-12T11:54:40.895Z,210
2017-10-12T11:55:40.209Z,210
2017-10-12T11:56:40.544Z,215
2017-10-12T11:57:40.536Z,215
2017-10-12T11:58:40.880Z,215
2017-10-12T11:59:40.190Z,230
2017-10-12T12:00:40.528Z,235
2017-10-12T12:01:40.517Z,245
2017-10-12T12:02:40.512Z,245
2017-10-12T12:03:40.504Z,250
2017-10-12T12:04:40.500Z,265
2017-10-12T12:05:41.535Z,280
2017-10-12T12:06:40.160Z,305
2017-10-12T12:07:40.488Z,295
2017-10-12T12:08:40.499Z,290
2017-10-12T12:09:40.490Z,285
2017-10-12T12:10:40.143Z,315
2017-10-12T12:11:40.471Z,330
2017-10-12T12:12:40.813Z,325
2017-10-12T12:13:40.801Z,325
2017-10-12T12:14:41.019Z,320
2017-10-12T12:15:40.449Z,320
2017-10-12T12:16:40.122Z,305
2017-10-12T12:17:40.784Z,280
2017-10-12T12:18:40.770Z,265
2017-10-12T12:19:40.446Z,260
2017-10-12T12:20:40.428Z,260
2017-10-12T12:21:40.470Z,255
2017-10-12T12:22:40.415Z,235
2017-10-12T12:23:40.753Z,195
2017-10-12T12:24:40.783Z,165
2017-10-12T12:25:40.403Z,170
2017-10-12T12:26:40.738Z,210
2017-10-12T12:27:40.737Z,225
2017-10-12T12:28:40.723Z,220
2017-10-12T12:29:40.388Z,235
2017-10-12T12:30:40.044Z,270
2017-10-12T12:31:40.382Z,305
2017-10-12T12:32:40.371Z,320
2017-10-12T12:33:40.699Z,320
2017-10-12T12:34:40.377Z,310
2017-10-12T12:35:41.049Z,305
2017-10-12T12:36:41.047Z,295
2017-10-12T12:37:40.007Z,290
2017-10-12T12:38:40.700Z,300
2017-10-12T12:39:39.993Z,305
2017-10-12T12:40:40.677Z,300
2017-10-12T12:41:40.013Z,295
2017-10-12T12:42:40.324Z,290
2017-10-12T12:43:40.317Z,285
2017-10-12T12:44:40.702Z,280
2017-10-12T12:45:40.650Z,275
2017-10-12T12:46:39.960Z,265
2017-10-12T12:47:40.296Z,255
2017-10-12T12:48:40.660Z,255
2017-10-12T12:49:39.949Z,265
2017-10-12T12:50:40.962Z,270
2017-10-12T12:51:40.968Z,265
2017-10-12T12:52:39.930Z,255
2017-10-12T12:53:40.274Z,245
2017-10-12T12:54:40.618Z,230
2017-10-12T12:55:39.922Z,225
2017-10-12T12:56:40.614Z,245
2017-10-12T12:57:40.595Z,240
2017-10-12T12:58:40.278Z,220
2017-10-12T12:59:40.245Z,215
2017-10-12T13:00:40.599Z,210
2017-10-12T13:01:39.913Z,200
2017-10-12T13:02:40.235Z,180
2017-10-12T13:03:39.891Z,165
2017-10-12T13:04:40.237Z,160
2017-10-12T13:05:40.563Z,165
2017-10-12T13:06:39.866Z,175
2017-10-12T13:07:40.227Z,180
2017-10-12T13:08:40.540Z,175
2017-10-12T13:09:40.197Z,170
2017-10-12T13:10:40.892Z,170
2017-10-12T13:11:39.844Z,160
2017-10-12T13:12:40.192Z,170
2017-10-12T13:13:39.842Z,165
2017-10-12T13:14:39.849Z,170
2017-10-12T13:15:40.164Z,160
2017-10-12T13:16:40.189Z,150
2017-10-12T13:17:41.211Z,140
2017-10-12T13:18:40.150Z,135
2017-10-12T13:19:40.823Z,135
2017-10-12T13:20:40.475Z,175
2017-10-12T13:21:39.793Z,235
2017-10-12T13:22:39.802Z,215
2017-10-12T13:23:40.129Z,175
2017-10-12T13:24:39.779Z,155
2017-10-12T13:25:40.464Z,165
2017-10-12T13:26:40.451Z,160
2017-10-12T13:27:45.150Z,190
2017-10-12T13:28:40.436Z,225
2017-10-12T13:29:40.788Z,205
2017-10-12T13:30:39.748Z,190
2017-10-12T13:31:40.101Z,175
2017-10-12T13:32:40.078Z,165
2017-10-12T13:33:40.417Z,200
2017-10-12T13:34:40.084Z,205
2017-10-12T13:35:40.060Z,190
2017-10-12T13:36:40.059Z,155
2017-10-12T13:37:40.404Z,150
2017-10-12T13:38:40.061Z,150
2017-10-12T13:39:40.723Z,185
2017-10-12T13:40:40.056Z,200
2017-10-12T13:41:40.390Z,195
2017-10-12T13:42:40.021Z,170
2017-10-12T13:43:40.035Z,175
2017-10-12T13:44:40.041Z,185
2017-10-12T13:45:40.037Z,180
2017-10-12T13:46:40.362Z,155
2017-10-12T13:47:40.004Z,150
2017-10-12T13:48:40.334Z,145
2017-10-12T13:49:39.983Z,145
2017-10-12T13:50:40.682Z,145
2017-10-12T13:51:39.988Z,150
2017-10-12T13:52:40.658Z,170
2017-10-12T13:53:40.315Z,165
2017-10-12T13:54:40.301Z,170
2017-10-12T13:55:39.618Z,180
2017-10-12T13:56:39.968Z,190
2017-10-12T13:57:40.293Z,185
2017-10-12T13:58:40.969Z,160
2017-10-12T13:59:39.940Z,150
2017-10-12T14:00:39.969Z,150
2017-10-12T14:01:39.930Z,150
2017-10-12T14:02:39.923Z,150
2017-10-12T14:03:39.952Z,150
2017-10-12T14:04:40.266Z,150
2017-10-12T14:05:40.611Z,135
2017-10-12T14:06:39.574Z,120
2017-10-12T14:07:39.902Z,120
2017-10-12T14:08:39.893Z,120
2017-10-12T14:09:40.578Z,130
2017-10-12T14:10:39.881Z,135
2017-10-12T14:11:40.223Z,145
2017-10-12T14:12:40.580Z,155
2017-10-12T14:13:39.914Z,160